sensor_id;sensor_type;location;lat;lon;timestamp;temperature;humidity
46378;DHT22;32083;47.360;9.650;2023-09-08T04:00:57;18.90;99.90
46378;DHT22;32083;47.360;9.650;2023-09-08T04:03:23;18.90;99.90
46378;DHT22;32083;47.360;9.650;2023-09-08T04:05:49;18.80;99.90
46378;DHT22;32083;47.360;9.650;2023-09-08T04:08:16;18.80;99.90
46378;DHT22;32083;47.360;9.650;2023-09-08T04:10:43;18.80;99.90
46378;DHT22;32083;47.360;9.650;2023-09-08T04:13:09;18.70;99.90
46378;DHT22;32083;47.360;9.650;2023-09-08T04:15:35;18.70;99.90
46378;DHT22;32083;47.360;9.650;2023-09-08T04:18:01;18.70;99.90
46378;DHT22;32083;47.360;9.650;2023-09-08T04:20:27;18.70;99.90
46378;DHT22;32083;47.360;9.650;2023-09-08T04:22:53;18.70;99.90
46378;DHT22;32083;47.360;9.650;2023-09-08T04:25:19;18.70;99.90
46378;DHT22;32083;47.360;9.650;2023-09-08T04:27:45;18.70;99.90
46378;DHT22;32083;47.360;9.650;2023-09-08T04:30:12;18.70;99.90
46378;DHT22;32083;47.360;9.650;2023-09-08T04:32:38;18.70;99.90
46378;DHT22;32083;47.360;9.650;2023-09-08T04:35:05;18.60;99.90
46378;DHT22;32083;47.360;9.650;2023-09-08T04:37:31;18.60;99.90
46378;DHT22;32083;47.360;9.650;2023-09-08T04:39:57;18.60;99.90
46378;DHT22;32083;47.360;9.650;2023-09-08T04:42:23;18.60;99.90
46378;DHT22;32083;47.360;9.650;2023-09-08T04:44:49;18.60;99.90
46378;DHT22;32083;47.360;9.650;2023-09-08T04:47:14;18.60;99.90
46378;DHT22;32083;47.360;9.650;2023-09-08T04:49:40;18.60;99.90
46378;DHT22;32083;47.360;9.650;2023-09-08T04:52:06;18.60;99.90
46378;DHT22;32083;47.360;9.650;2023-09-08T04:54:32;18.50;99.90
46378;DHT22;32083;47.360;9.650;2023-09-08T04:56:58;18.60;99.90
46378;DHT22;32083;47.360;9.650;2023-09-08T04:59:24;18.50;99.90
46378;DHT22;32083;47.360;9.650;2023-09-08T05:01:51;18.60;99.90
46378;DHT22;32083;47.360;9.650;2023-09-08T05:04:17;18.60;99.90
46378;DHT22;32083;47.360;9.650;2023-09-08T05:06:43;18.60;99.90
46378;DHT22;32083;47.360;9.650;2023-09-08T05:09:09;18.60;99.90
46378;DHT22;32083;47.360;9.650;2023-09-08T05:11:35;18.60;99.90
46378;DHT22;32083;47.360;9.650;2023-09-08T05:14:01;18.60;99.90
46378;DHT22;32083;47.360;9.650;2023-09-08T05:16:27;18.60;99.90
46378;DHT22;32083;47.360;9.650;2023-09-08T05:19:04;18.60;99.90
46378;DHT22;32083;47.360;9.650;2023-09-08T05:21:34;18.70;99.90
46378;DHT22;32083;47.360;9.650;2023-09-08T05:24:00;18.70;99.90
46378;DHT22;32083;47.360;9.650;2023-09-08T05:26:26;18.80;99.90
46378;DHT22;32083;47.360;9.650;2023-09-08T05:28:52;18.80;99.90
46378;DHT22;32083;47.360;9.650;2023-09-08T05:31:18;18.80;99.90
46378;DHT22;32083;47.360;9.650;2023-09-08T05:33:43;18.90;99.90
46378;DHT22;32083;47.360;9.650;2023-09-08T05:36:09;18.90;99.90
46378;DHT22;32083;47.360;9.650;2023-09-08T05:38:35;18.90;99.90
46378;DHT22;32083;47.360;9.650;2023-09-08T05:41:01;18.90;99.90
46378;DHT22;32083;47.360;9.650;2023-09-08T05:43:28;19.00;99.90
46378;DHT22;32083;47.360;9.650;2023-09-08T05:45:54;19.20;99.90
46378;DHT22;32083;47.360;9.650;2023-09-08T05:48:20;19.40;99.90
46378;DHT22;32083;47.360;9.650;2023-09-08T05:50:46;19.50;99.90
46378;DHT22;32083;47.360;9.650;2023-09-08T05:53:12;19.50;99.90
46378;DHT22;32083;47.360;9.650;2023-09-08T05:55:37;19.60;99.90
46378;DHT22;32083;47.360;9.650;2023-09-08T05:58:03;19.60;99.90
46378;DHT22;32083;47.360;9.650;2023-09-08T06:00:29;19.60;99.90
46378;DHT22;32083;47.360;9.650;2023-09-08T06:02:55;19.70;99.90
46378;DHT22;32083;47.360;9.650;2023-09-08T06:05:21;19.70;99.90
46378;DHT22;32083;47.360;9.650;2023-09-08T06:07:47;19.70;99.90
46378;DHT22;32083;47.360;9.650;2023-09-08T06:10:14;19.80;99.90
46378;DHT22;32083;47.360;9.650;2023-09-08T06:12:40;19.90;99.90
46378;DHT22;32083;47.360;9.650;2023-09-08T06:15:06;20.10;99.90
46378;DHT22;32083;47.360;9.650;2023-09-08T06:17:33;20.20;99.90
46378;DHT22;32083;47.360;9.650;2023-09-08T06:19:59;20.30;99.90
46378;DHT22;32083;47.360;9.650;2023-09-08T06:22:26;20.40;99.90
46378;DHT22;32083;47.360;9.650;2023-09-08T06:24:52;20.70;99.90
46378;DHT22;32083;47.360;9.650;2023-09-08T06:27:18;20.80;99.90
46378;DHT22;32083;47.360;9.650;2023-09-08T06:29:47;20.80;99.90
46378;DHT22;32083;47.360;9.650;2023-09-08T06:32:14;20.90;99.90
46378;DHT22;32083;47.360;9.650;2023-09-08T06:34:43;20.90;99.90
46378;DHT22;32083;47.360;9.650;2023-09-08T06:37:09;21.00;99.90
46378;DHT22;32083;47.360;9.650;2023-09-08T06:39:34;21.20;99.90
46378;DHT22;32083;47.360;9.650;2023-09-08T06:42:00;21.30;99.90
46378;DHT22;32083;47.360;9.650;2023-09-08T06:44:26;21.40;99.90
46378;DHT22;32083;47.360;9.650;2023-09-08T06:46:53;21.50;99.90
46378;DHT22;32083;47.360;9.650;2023-09-08T06:49:19;21.50;99.90
46378;DHT22;32083;47.360;9.650;2023-09-08T06:51:45;21.40;99.90
46378;DHT22;32083;47.360;9.650;2023-09-08T06:59:24;21.60;99.90
46378;DHT22;32083;47.360;9.650;2023-09-08T07:01:50;21.80;99.90
46378;DHT22;32083;47.360;9.650;2023-09-08T07:06:54;21.90;99.90
46378;DHT22;32083;47.360;9.650;2023-09-08T07:11:55;22.00;99.90
46378;DHT22;32083;47.360;9.650;2023-09-08T07:14:21;22.10;99.90
46378;DHT22;32083;47.360;9.650;2023-09-08T07:16:46;22.20;99.90
46378;DHT22;32083;47.360;9.650;2023-09-08T07:19:12;22.30;99.90
46378;DHT22;32083;47.360;9.650;2023-09-08T07:21:38;22.40;99.90
46378;DHT22;32083;47.360;9.650;2023-09-08T07:24:03;22.50;99.90
46378;DHT22;32083;47.360;9.650;2023-09-08T07:26:29;22.60;99.90
46378;DHT22;32083;47.360;9.650;2023-09-08T07:28:55;22.60;99.90
46378;DHT22;32083;47.360;9.650;2023-09-08T07:31:21;22.70;99.90
46378;DHT22;32083;47.360;9.650;2023-09-08T07:33:46;22.70;99.90
46378;DHT22;32083;47.360;9.650;2023-09-08T07:36:13;22.80;99.90
46378;DHT22;32083;47.360;9.650;2023-09-08T07:38:39;22.90;99.90
46378;DHT22;32083;47.360;9.650;2023-09-08T07:41:05;22.80;99.90
46378;DHT22;32083;47.360;9.650;2023-09-08T07:43:31;22.60;99.90
46378;DHT22;32083;47.360;9.650;2023-09-08T07:45:57;22.50;99.90
46378;DHT22;32083;47.360;9.650;2023-09-08T07:48:24;22.40;99.90
46378;DHT22;32083;47.360;9.650;2023-09-08T07:50:50;22.50;99.90
46378;DHT22;32083;47.360;9.650;2023-09-08T07:53:16;22.50;99.90
46378;DHT22;32083;47.360;9.650;2023-09-08T07:55:42;22.30;99.90
46378;DHT22;32083;47.360;9.650;2023-09-08T07:58:08;22.40;99.90
46378;DHT22;32083;47.360;9.650;2023-09-08T08:00:34;22.50;99.90
46378;DHT22;32083;47.360;9.650;2023-09-08T08:02:59;22.60;99.90
46378;DHT22;32083;47.360;9.650;2023-09-08T08:05:25;22.70;99.90
46378;DHT22;32083;47.360;9.650;2023-09-08T08:07:51;22.80;99.90
46378;DHT22;32083;47.360;9.650;2023-09-08T08:10:17;22.80;99.90
46378;DHT22;32083;47.360;9.650;2023-09-08T08:12:43;22.90;99.90
46378;DHT22;32083;47.360;9.650;2023-09-08T08:15:10;23.10;99.90
46378;DHT22;32083;47.360;9.650;2023-09-08T08:17:39;23.10;99.90
46378;DHT22;32083;47.360;9.650;2023-09-08T08:20:06;23.20;99.90
46378;DHT22;32083;47.360;9.650;2023-09-08T08:22:36;23.20;99.90
46378;DHT22;32083;47.360;9.650;2023-09-08T08:25:02;23.20;99.90
46378;DHT22;32083;47.360;9.650;2023-09-08T08:27:31;23.30;99.90
46378;DHT22;32083;47.360;9.650;2023-09-08T08:29:58;23.30;99.90
46378;DHT22;32083;47.360;9.650;2023-09-08T08:32:28;23.30;99.90
46378;DHT22;32083;47.360;9.650;2023-09-08T08:34:54;23.30;99.90
46378;DHT22;32083;47.360;9.650;2023-09-08T08:37:20;23.40;99.90
46378;DHT22;32083;47.360;9.650;2023-09-08T08:39:46;23.50;99.90
46378;DHT22;32083;47.360;9.650;2023-09-08T08:42:12;23.50;99.90
46378;DHT22;32083;47.360;9.650;2023-09-08T08:44:39;23.60;99.90
46378;DHT22;32083;47.360;9.650;2023-09-08T08:47:07;23.70;99.90
46378;DHT22;32083;47.360;9.650;2023-09-08T08:49:34;23.80;99.90
46378;DHT22;32083;47.360;9.650;2023-09-08T08:52:00;23.90;99.90
46378;DHT22;32083;47.360;9.650;2023-09-08T08:54:29;23.90;99.90
46378;DHT22;32083;47.360;9.650;2023-09-08T08:57:04;24.00;99.80
46378;DHT22;32083;47.360;9.650;2023-09-08T08:59:31;23.90;99.80
46378;DHT22;32083;47.360;9.650;2023-09-08T09:01:59;24.00;99.90
46378;DHT22;32083;47.360;9.650;2023-09-08T09:04:25;24.00;99.90
46378;DHT22;32083;47.360;9.650;2023-09-08T09:06:53;24.00;99.20
46378;DHT22;32083;47.360;9.650;2023-09-08T09:09:19;24.00;99.60
46378;DHT22;32083;47.360;9.650;2023-09-08T09:11:46;24.10;99.60
46378;DHT22;32083;47.360;9.650;2023-09-08T09:14:11;24.10;99.10
46378;DHT22;32083;47.360;9.650;2023-09-08T09:16:41;24.10;99.60
46378;DHT22;32083;47.360;9.650;2023-09-08T09:19:08;24.20;99.90
46378;DHT22;32083;47.360;9.650;2023-09-08T09:21:45;24.30;99.10
46378;DHT22;32083;47.360;9.650;2023-09-08T09:24:17;24.40;99.30
46378;DHT22;32083;47.360;9.650;2023-09-08T09:26:43;24.30;98.50
46378;DHT22;32083;47.360;9.650;2023-09-08T09:29:15;24.30;98.80
46378;DHT22;32083;47.360;9.650;2023-09-08T09:31:54;24.40;98.60
46378;DHT22;32083;47.360;9.650;2023-09-08T09:34:22;24.30;98.20
46378;DHT22;32083;47.360;9.650;2023-09-08T09:36:49;24.30;98.70
46378;DHT22;32083;47.360;9.650;2023-09-08T09:39:25;24.30;98.40
46378;DHT22;32083;47.360;9.650;2023-09-08T09:41:57;24.40;98.30
46378;DHT22;32083;47.360;9.650;2023-09-08T09:44:24;24.40;98.40
46378;DHT22;32083;47.360;9.650;2023-09-08T09:46:54;24.50;99.10
46378;DHT22;32083;47.360;9.650;2023-09-08T09:49:20;24.40;98.20
46378;DHT22;32083;47.360;9.650;2023-09-08T09:51:48;24.50;99.30
46378;DHT22;32083;47.360;9.650;2023-09-08T09:54:15;24.50;98.80
46378;DHT22;32083;47.360;9.650;2023-09-08T09:56:41;24.60;98.90
46378;DHT22;32083;47.360;9.650;2023-09-08T09:59:08;24.60;98.70
46378;DHT22;32083;47.360;9.650;2023-09-08T10:01:36;24.70;98.90
46378;DHT22;32083;47.360;9.650;2023-09-08T10:04:03;24.70;98.90
46378;DHT22;32083;47.360;9.650;2023-09-08T10:06:37;24.70;98.70
46378;DHT22;32083;47.360;9.650;2023-09-08T10:09:04;24.80;98.30
46378;DHT22;32083;47.360;9.650;2023-09-08T10:11:47;24.80;98.20
46378;DHT22;32083;47.360;9.650;2023-09-08T10:14:15;24.80;98.60
46378;DHT22;32083;47.360;9.650;2023-09-08T10:16:44;24.80;97.90
46378;DHT22;32083;47.360;9.650;2023-09-08T10:19:11;24.80;97.80
46378;DHT22;32083;47.360;9.650;2023-09-08T10:21:45;24.90;97.80
46378;DHT22;32083;47.360;9.650;2023-09-08T10:24:33;24.80;97.60
46378;DHT22;32083;47.360;9.650;2023-09-08T10:27:09;24.90;97.60
46378;DHT22;32083;47.360;9.650;2023-09-08T10:29:36;25.00;97.80
46378;DHT22;32083;47.360;9.650;2023-09-08T10:32:02;25.00;97.70
46378;DHT22;32083;47.360;9.650;2023-09-08T10:34:30;25.00;97.40
46378;DHT22;32083;47.360;9.650;2023-09-08T10:36:56;25.00;97.60
46378;DHT22;32083;47.360;9.650;2023-09-08T10:39:32;25.10;97.30
46378;DHT22;32083;47.360;9.650;2023-09-08T10:42:24;25.20;97.80
46378;DHT22;32083;47.360;9.650;2023-09-08T10:44:59;25.30;97.60
46378;DHT22;32083;47.360;9.650;2023-09-08T10:50:18;25.30;97.70
46378;DHT22;32083;47.360;9.650;2023-09-08T10:52:45;25.30;98.20
46378;DHT22;32083;47.360;9.650;2023-09-08T10:55:37;25.40;97.70
46378;DHT22;32083;47.360;9.650;2023-09-08T10:58:06;25.40;98.10
46378;DHT22;32083;47.360;9.650;2023-09-08T11:00:46;25.60;97.50
46378;DHT22;32083;47.360;9.650;2023-09-08T11:03:13;25.60;97.50
46378;DHT22;32083;47.360;9.650;2023-09-08T11:05:41;25.60;97.60
46378;DHT22;32083;47.360;9.650;2023-09-08T11:08:08;25.70;97.70
46378;DHT22;32083;47.360;9.650;2023-09-08T11:10:34;25.80;97.10
46378;DHT22;32083;47.360;9.650;2023-09-08T11:13:01;25.80;97.20
46378;DHT22;32083;47.360;9.650;2023-09-08T11:15:28;25.80;97.20
46378;DHT22;32083;47.360;9.650;2023-09-08T11:17:55;25.80;96.70
46378;DHT22;32083;47.360;9.650;2023-09-08T11:20:27;25.80;97.20
46378;DHT22;32083;47.360;9.650;2023-09-08T11:22:53;25.90;97.20
46378;DHT22;32083;47.360;9.650;2023-09-08T11:25:20;25.80;97.10
46378;DHT22;32083;47.360;9.650;2023-09-08T11:27:46;25.80;97.90
46378;DHT22;32083;47.360;9.650;2023-09-08T11:30:15;25.80;97.90
46378;DHT22;32083;47.360;9.650;2023-09-08T11:32:44;25.80;97.50
46378;DHT22;32083;47.360;9.650;2023-09-08T11:35:12;25.90;97.90
46378;DHT22;32083;47.360;9.650;2023-09-08T11:37:47;25.90;97.90
46378;DHT22;32083;47.360;9.650;2023-09-08T11:40:15;26.00;97.80
46378;DHT22;32083;47.360;9.650;2023-09-08T11:42:44;26.10;97.60
46378;DHT22;32083;47.360;9.650;2023-09-08T11:45:12;26.20;97.10
46378;DHT22;32083;47.360;9.650;2023-09-08T11:47:40;26.20;97.00
46378;DHT22;32083;47.360;9.650;2023-09-08T11:50:08;26.20;97.10
46378;DHT22;32083;47.360;9.650;2023-09-08T11:52:34;26.20;97.10
46378;DHT22;32083;47.360;9.650;2023-09-08T11:55:03;26.20;97.10
46378;DHT22;32083;47.360;9.650;2023-09-08T11:57:30;26.30;97.40
46378;DHT22;32083;47.360;9.650;2023-09-08T12:00:00;26.40;97.40
46378;DHT22;32083;47.360;9.650;2023-09-08T12:02:34;26.40;97.10
46378;DHT22;32083;47.360;9.650;2023-09-08T12:05:02;26.50;97.80
46378;DHT22;32083;47.360;9.650;2023-09-08T12:07:28;26.60;97.00
46378;DHT22;32083;47.360;9.650;2023-09-08T12:09:54;26.60;97.10
46378;DHT22;32083;47.360;9.650;2023-09-08T12:12:20;26.70;96.80
46378;DHT22;32083;47.360;9.650;2023-09-08T12:14:46;26.70;96.90
46378;DHT22;32083;47.360;9.650;2023-09-08T12:17:12;26.70;96.30
46378;DHT22;32083;47.360;9.650;2023-09-08T12:19:42;26.70;96.50
46378;DHT22;32083;47.360;9.650;2023-09-08T12:22:08;26.70;95.80
46378;DHT22;32083;47.360;9.650;2023-09-08T12:24:56;26.80;96.50
46378;DHT22;32083;47.360;9.650;2023-09-08T12:27:25;26.80;96.30
46378;DHT22;32083;47.360;9.650;2023-09-08T12:29:59;26.80;96.50
46378;DHT22;32083;47.360;9.650;2023-09-08T12:32:30;26.90;95.60
46378;DHT22;32083;47.360;9.650;2023-09-08T12:34:57;27.00;95.40
46378;DHT22;32083;47.360;9.650;2023-09-08T12:37:24;27.00;95.30
46378;DHT22;32083;47.360;9.650;2023-09-08T12:39:51;27.00;96.00
46378;DHT22;32083;47.360;9.650;2023-09-08T12:42:18;27.10;95.50
46378;DHT22;32083;47.360;9.650;2023-09-08T12:44:45;27.10;95.30
46378;DHT22;32083;47.360;9.650;2023-09-08T12:47:11;27.10;95.10
46378;DHT22;32083;47.360;9.650;2023-09-08T12:49:40;27.10;95.30
46378;DHT22;32083;47.360;9.650;2023-09-08T12:52:06;27.10;95.00
46378;DHT22;32083;47.360;9.650;2023-09-08T12:54:32;27.20;95.60
46378;DHT22;32083;47.360;9.650;2023-09-08T12:56:58;27.20;94.80
46378;DHT22;32083;47.360;9.650;2023-09-08T12:59:24;27.20;94.60
46378;DHT22;32083;47.360;9.650;2023-09-08T13:01:50;27.30;94.80
46378;DHT22;32083;47.360;9.650;2023-09-08T13:04:15;27.30;94.60
46378;DHT22;32083;47.360;9.650;2023-09-08T13:06:41;27.30;94.60
46378;DHT22;32083;47.360;9.650;2023-09-08T13:09:07;27.40;94.60
46378;DHT22;32083;47.360;9.650;2023-09-08T13:11:33;27.40;94.00
46378;DHT22;32083;47.360;9.650;2023-09-08T13:13:59;27.40;93.70
46378;DHT22;32083;47.360;9.650;2023-09-08T13:16:25;27.40;94.30
46378;DHT22;32083;47.360;9.650;2023-09-08T13:18:51;27.50;93.50
46378;DHT22;32083;47.360;9.650;2023-09-08T13:21:17;27.50;93.00
46378;DHT22;32083;47.360;9.650;2023-09-08T13:23:43;27.60;93.60
46378;DHT22;32083;47.360;9.650;2023-09-08T13:26:09;27.70;93.10
46378;DHT22;32083;47.360;9.650;2023-09-08T13:28:35;27.80;93.20
46378;DHT22;32083;47.360;9.650;2023-09-08T13:31:02;28.00;93.00
46378;DHT22;32083;47.360;9.650;2023-09-08T13:33:28;28.10;92.30
46378;DHT22;32083;47.360;9.650;2023-09-08T13:35:54;28.10;92.10
46378;DHT22;32083;47.360;9.650;2023-09-08T13:38:20;28.10;92.10
46378;DHT22;32083;47.360;9.650;2023-09-08T13:40:46;28.20;91.70
46378;DHT22;32083;47.360;9.650;2023-09-08T13:43:12;28.30;92.30
46378;DHT22;32083;47.360;9.650;2023-09-08T13:45:39;28.30;91.00
46378;DHT22;32083;47.360;9.650;2023-09-08T13:48:08;28.40;90.90
46378;DHT22;32083;47.360;9.650;2023-09-08T13:50:34;28.40;90.70
46378;DHT22;32083;47.360;9.650;2023-09-08T13:53:00;28.40;90.20
46378;DHT22;32083;47.360;9.650;2023-09-08T13:55:26;28.40;89.00
46378;DHT22;32083;47.360;9.650;2023-09-08T13:57:52;28.40;90.60
46378;DHT22;32083;47.360;9.650;2023-09-08T14:00:19;28.50;90.90
46378;DHT22;32083;47.360;9.650;2023-09-08T14:02:45;28.50;88.80
46378;DHT22;32083;47.360;9.650;2023-09-08T14:05:11;28.40;88.00
46378;DHT22;32083;47.360;9.650;2023-09-08T14:07:37;28.50;87.90
46378;DHT22;32083;47.360;9.650;2023-09-08T14:10:03;28.50;88.40
46378;DHT22;32083;47.360;9.650;2023-09-08T14:12:33;28.50;86.30
46378;DHT22;32083;47.360;9.650;2023-09-08T14:15:00;28.40;86.40
46378;DHT22;32083;47.360;9.650;2023-09-08T14:17:29;28.50;89.60
46378;DHT22;32083;47.360;9.650;2023-09-08T14:19:54;28.50;88.40
46378;DHT22;32083;47.360;9.650;2023-09-08T14:22:20;28.40;87.20
46378;DHT22;32083;47.360;9.650;2023-09-08T14:24:46;28.40;85.90
46378;DHT22;32083;47.360;9.650;2023-09-08T14:27:11;28.50;86.50
46378;DHT22;32083;47.360;9.650;2023-09-08T14:29:37;28.50;87.20
46378;DHT22;32083;47.360;9.650;2023-09-08T14:32:03;28.50;87.90
46378;DHT22;32083;47.360;9.650;2023-09-08T14:34:34;28.50;86.70
46378;DHT22;32083;47.360;9.650;2023-09-08T14:37:00;28.50;87.10
46378;DHT22;32083;47.360;9.650;2023-09-08T14:39:26;28.50;87.50
46378;DHT22;32083;47.360;9.650;2023-09-08T14:41:52;28.50;87.60
46378;DHT22;32083;47.360;9.650;2023-09-08T14:44:19;28.60;89.10
46378;DHT22;32083;47.360;9.650;2023-09-08T14:46:46;28.50;87.80
46378;DHT22;32083;47.360;9.650;2023-09-08T14:49:12;28.50;88.50
46378;DHT22;32083;47.360;9.650;2023-09-08T14:51:40;28.50;86.30
46378;DHT22;32083;47.360;9.650;2023-09-08T14:54:06;28.50;87.80
46378;DHT22;32083;47.360;9.650;2023-09-08T14:56:32;28.50;87.70
46378;DHT22;32083;47.360;9.650;2023-09-08T14:58:59;28.40;85.90
46378;DHT22;32083;47.360;9.650;2023-09-08T15:01:26;28.40;87.60
46378;DHT22;32083;47.360;9.650;2023-09-08T15:03:52;28.40;86.10
46378;DHT22;32083;47.360;9.650;2023-09-08T15:06:18;28.40;86.70
46378;DHT22;32083;47.360;9.650;2023-09-08T15:08:44;28.40;84.60
46378;DHT22;32083;47.360;9.650;2023-09-08T15:11:12;28.40;86.60
46378;DHT22;32083;47.360;9.650;2023-09-08T15:13:38;28.40;86.40
46378;DHT22;32083;47.360;9.650;2023-09-08T15:16:04;28.40;86.30
46378;DHT22;32083;47.360;9.650;2023-09-08T15:18:30;28.40;87.70
46378;DHT22;32083;47.360;9.650;2023-09-08T15:20:56;28.30;85.90
46378;DHT22;32083;47.360;9.650;2023-09-08T15:23:23;28.30;87.00
46378;DHT22;32083;47.360;9.650;2023-09-08T15:25:57;28.40;86.40
46378;DHT22;32083;47.360;9.650;2023-09-08T15:28:26;28.40;87.50
46378;DHT22;32083;47.360;9.650;2023-09-08T15:30:53;28.30;86.40
46378;DHT22;32083;47.360;9.650;2023-09-08T15:33:20;28.30;87.30
46378;DHT22;32083;47.360;9.650;2023-09-08T15:35:47;28.20;86.60
46378;DHT22;32083;47.360;9.650;2023-09-08T15:38:14;28.20;87.20
46378;DHT22;32083;47.360;9.650;2023-09-08T15:43:35;28.20;89.00
46378;DHT22;32083;47.360;9.650;2023-09-08T15:46:01;28.20;89.10
46378;DHT22;32083;47.360;9.650;2023-09-08T15:48:26;28.20;87.80
46378;DHT22;32083;47.360;9.650;2023-09-08T15:50:52;28.20;89.40
46378;DHT22;32083;47.360;9.650;2023-09-08T15:53:18;28.20;87.70
46378;DHT22;32083;47.360;9.650;2023-09-08T15:55:44;28.10;88.60
46378;DHT22;32083;47.360;9.650;2023-09-08T15:58:12;28.10;87.30
46378;DHT22;32083;47.360;9.650;2023-09-08T16:00:38;28.10;86.80
46378;DHT22;32083;47.360;9.650;2023-09-08T16:03:04;28.00;86.80
46378;DHT22;32083;47.360;9.650;2023-09-08T16:05:30;28.00;86.40
46378;DHT22;32083;47.360;9.650;2023-09-08T16:07:56;28.00;87.50
46378;DHT22;32083;47.360;9.650;2023-09-08T16:10:22;28.00;87.80
46378;DHT22;32083;47.360;9.650;2023-09-08T16:12:48;28.00;88.60
46378;DHT22;32083;47.360;9.650;2023-09-08T16:15:15;28.00;87.70
46378;DHT22;32083;47.360;9.650;2023-09-08T16:17:41;27.90;88.20
46378;DHT22;32083;47.360;9.650;2023-09-08T16:20:08;27.90;89.10
46378;DHT22;32083;47.360;9.650;2023-09-08T16:22:34;27.90;89.50
46378;DHT22;32083;47.360;9.650;2023-09-08T16:25:00;27.90;89.00
46378;DHT22;32083;47.360;9.650;2023-09-08T16:27:26;27.80;88.70
46378;DHT22;32083;47.360;9.650;2023-09-08T16:29:54;27.80;89.20
46378;DHT22;32083;47.360;9.650;2023-09-08T16:32:20;27.80;89.10
46378;DHT22;32083;47.360;9.650;2023-09-08T16:34:51;27.80;89.40
46378;DHT22;32083;47.360;9.650;2023-09-08T16:37:17;27.70;89.40
46378;DHT22;32083;47.360;9.650;2023-09-08T16:39:43;27.70;89.50
46378;DHT22;32083;47.360;9.650;2023-09-08T16:42:11;27.70;90.50
46378;DHT22;32083;47.360;9.650;2023-09-08T16:44:37;27.60;90.60
46378;DHT22;32083;47.360;9.650;2023-09-08T16:47:04;27.60;90.30
46378;DHT22;32083;47.360;9.650;2023-09-08T16:49:30;27.50;90.70
46378;DHT22;32083;47.360;9.650;2023-09-08T16:51:57;27.40;90.70
46378;DHT22;32083;47.360;9.650;2023-09-08T16:54:22;27.40;90.40
46378;DHT22;32083;47.360;9.650;2023-09-08T16:56:48;27.30;90.60
46378;DHT22;32083;47.360;9.650;2023-09-08T16:59:14;27.30;90.80
46378;DHT22;32083;47.360;9.650;2023-09-08T17:01:40;27.30;90.80
46378;DHT22;32083;47.360;9.650;2023-09-08T17:04:06;27.20;91.10
46378;DHT22;32083;47.360;9.650;2023-09-08T17:06:35;27.20;91.10
46378;DHT22;32083;47.360;9.650;2023-09-08T17:09:01;27.10;91.00
46378;DHT22;32083;47.360;9.650;2023-09-08T17:11:27;27.00;91.50
46378;DHT22;32083;47.360;9.650;2023-09-08T17:13:52;27.00;91.30
46378;DHT22;32083;47.360;9.650;2023-09-08T17:16:18;27.00;91.60
46378;DHT22;32083;47.360;9.650;2023-09-08T17:18:44;26.90;91.80
46378;DHT22;32083;47.360;9.650;2023-09-08T17:21:10;26.80;91.90
46378;DHT22;32083;47.360;9.650;2023-09-08T17:23:37;26.80;92.10
46378;DHT22;32083;47.360;9.650;2023-09-08T17:26:03;26.60;92.10
46378;DHT22;32083;47.360;9.650;2023-09-08T17:28:29;26.50;92.10
46378;DHT22;32083;47.360;9.650;2023-09-08T17:30:55;26.40;92.20
46378;DHT22;32083;47.360;9.650;2023-09-08T17:33:21;26.30;92.40
46378;DHT22;32083;47.360;9.650;2023-09-08T17:35:47;26.20;92.40
46378;DHT22;32083;47.360;9.650;2023-09-08T17:38:13;26.20;92.60
46378;DHT22;32083;47.360;9.650;2023-09-08T17:40:40;26.20;92.70
46378;DHT22;32083;47.360;9.650;2023-09-08T17:43:06;26.10;92.90
46378;DHT22;32083;47.360;9.650;2023-09-08T17:45:32;26.10;92.90
46378;DHT22;32083;47.360;9.650;2023-09-08T17:47:57;26.00;93.00
46378;DHT22;32083;47.360;9.650;2023-09-08T17:50:24;26.00;93.10
46378;DHT22;32083;47.360;9.650;2023-09-08T17:52:52;25.90;93.20
46378;DHT22;32083;47.360;9.650;2023-09-08T17:55:18;25.80;93.40
46378;DHT22;32083;47.360;9.650;2023-09-08T17:57:44;25.70;93.50
46378;DHT22;32083;47.360;9.650;2023-09-08T18:00:11;25.60;93.40
46378;DHT22;32083;47.360;9.650;2023-09-08T18:02:36;25.60;93.90
46378;DHT22;32083;47.360;9.650;2023-09-08T18:05:02;25.50;94.20
46378;DHT22;32083;47.360;9.650;2023-09-08T18:07:28;25.50;94.10
46378;DHT22;32083;47.360;9.650;2023-09-08T18:09:55;25.40;94.00
46378;DHT22;32083;47.360;9.650;2023-09-08T18:12:21;25.30;94.30
46378;DHT22;32083;47.360;9.650;2023-09-08T18:14:51;25.30;94.20
46378;DHT22;32083;47.360;9.650;2023-09-08T18:17:17;25.20;94.60
46378;DHT22;32083;47.360;9.650;2023-09-08T18:19:43;25.20;94.50
46378;DHT22;32083;47.360;9.650;2023-09-08T18:22:09;25.10;94.80
46378;DHT22;32083;47.360;9.650;2023-09-08T18:24:35;25.00;95.20
46378;DHT22;32083;47.360;9.650;2023-09-08T18:27:01;25.00;95.10
46378;DHT22;32083;47.360;9.650;2023-09-08T18:29:27;24.90;95.30
46378;DHT22;32083;47.360;9.650;2023-09-08T18:31:54;24.80;95.40
46378;DHT22;32083;47.360;9.650;2023-09-08T18:34:20;24.80;95.80
46378;DHT22;32083;47.360;9.650;2023-09-08T18:36:46;24.70;95.70
46378;DHT22;32083;47.360;9.650;2023-09-08T18:39:12;24.60;95.90
46378;DHT22;32083;47.360;9.650;2023-09-08T18:41:38;24.60;96.10
46378;DHT22;32083;47.360;9.650;2023-09-08T18:44:05;24.60;95.80
46378;DHT22;32083;47.360;9.650;2023-09-08T18:46:31;24.50;95.80
46378;DHT22;32083;47.360;9.650;2023-09-08T18:48:57;24.50;96.00
46378;DHT22;32083;47.360;9.650;2023-09-08T18:51:23;24.40;96.40
46378;DHT22;32083;47.360;9.650;2023-09-08T18:53:48;24.40;96.10
46378;DHT22;32083;47.360;9.650;2023-09-08T18:56:14;24.30;96.70
46378;DHT22;32083;47.360;9.650;2023-09-08T18:58:43;24.20;96.40
46378;DHT22;32083;47.360;9.650;2023-09-08T19:01:10;24.20;96.30
46378;DHT22;32083;47.360;9.650;2023-09-08T19:03:36;24.10;96.60
46378;DHT22;32083;47.360;9.650;2023-09-08T19:06:04;24.00;96.60
46378;DHT22;32083;47.360;9.650;2023-09-08T19:08:30;24.00;96.60
46378;DHT22;32083;47.360;9.650;2023-09-08T19:10:56;24.00;96.50
46378;DHT22;32083;47.360;9.650;2023-09-08T19:13:22;23.90;96.40
46378;DHT22;32083;47.360;9.650;2023-09-08T19:15:48;23.90;96.60
46378;DHT22;32083;47.360;9.650;2023-09-08T19:18:14;23.90;96.40
46378;DHT22;32083;47.360;9.650;2023-09-08T19:20:42;23.80;96.80
46378;DHT22;32083;47.360;9.650;2023-09-08T19:23:08;23.80;96.40
46378;DHT22;32083;47.360;9.650;2023-09-08T19:25:38;23.70;97.30
46378;DHT22;32083;47.360;9.650;2023-09-08T19:28:05;23.70;96.90
46378;DHT22;32083;47.360;9.650;2023-09-08T19:30:31;23.60;96.90
46378;DHT22;32083;47.360;9.650;2023-09-08T19:32:57;23.60;97.50
46378;DHT22;32083;47.360;9.650;2023-09-08T19:35:23;23.50;97.70
46378;DHT22;32083;47.360;9.650;2023-09-08T19:37:49;23.50;97.80
46378;DHT22;32083;47.360;9.650;2023-09-08T19:40:15;23.50;97.30
46378;DHT22;32083;47.360;9.650;2023-09-08T19:42:41;23.40;97.80
46378;DHT22;32083;47.360;9.650;2023-09-08T19:45:07;23.40;98.20